Fish Creek, Wisconsin
Current Conditions -  °F | °C
As of 9:15 PM on Tuesday 25 Nov 2014 (Local Time) from KMNM Reporting Station
Few Clouds Few Clouds  
Wind Chill: 11°   Ceiling: Unl
Heat Index: 18°   Visibility: 10mi
Dew Point: 12°   Wind: 5mph
Humidity: 79%   Direction: 270°W
Pressure: 30.13"   Gusts: NA
Location:  45.13°N, 87.25°W
Report Text: KMNM 260315Z AUTO 27004KT 10SM FEW027 FEW033 M08/M11 A3013 RMK AO1
Loading
Personal Weather Stations






























Interactive Weather Map New forecast layout! Learn more

10-Day Weather Forecast

Advertisements
Track Severe Weather on mobile